Terminal Aerodrome Forecast
Issued by NWS

Home | Current Version | Previous Version | Text Only | Print | Product List | Glossary On
Versions: 1 2 3 4 5 6 7 8 9 10 11 12 13 14
000
FTAK31 PAJN 051120
TAFAJN
TAF
PAJN 051120Z 0512/0612 08013KT P6SM BKN080 OVC100
     FM051600 11010KT P6SM OVC050
     FM052000 12008KT P6SM VCSH SCT020 OVC040
     FM060300 09008KT P6SM VCSH OVC040
     FM060800 10010KT P6SM SCT020 OVC040 PROB30 0608/0612 -RA=

USA.gov is the U.S. government's official web portal to all federal, state and local government web resources and services.